sensor_id;sensor_type;location;lat;lon;timestamp;temperature;humidity
17994;DHT22;9122;48.406;9.984;2022-08-25T00:00:30;21.70;85.10
17994;DHT22;9122;48.406;9.984;2022-08-25T00:03:15;21.70;85.40
17994;DHT22;9122;48.406;9.984;2022-08-25T00:06:00;21.70;85.50
17994;DHT22;9122;48.406;9.984;2022-08-25T00:08:45;21.60;85.50
17994;DHT22;9122;48.406;9.984;2022-08-25T00:11:31;21.60;85.60
17994;DHT22;9122;48.406;9.984;2022-08-25T00:14:19;21.60;85.50
17994;DHT22;9122;48.406;9.984;2022-08-25T00:17:05;21.50;85.50
17994;DHT22;9122;48.406;9.984;2022-08-25T00:19:50;21.50;86.00
17994;DHT22;9122;48.406;9.984;2022-08-25T00:22:35;21.40;86.00
17994;DHT22;9122;48.406;9.984;2022-08-25T00:25:19;21.40;86.10
17994;DHT22;9122;48.406;9.984;2022-08-25T00:28:04;21.40;86.10
17994;DHT22;9122;48.406;9.984;2022-08-25T00:30:49;21.30;86.00
17994;DHT22;9122;48.406;9.984;2022-08-25T00:33:33;21.30;86.00
17994;DHT22;9122;48.406;9.984;2022-08-25T00:36:18;21.30;86.10
17994;DHT22;9122;48.406;9.984;2022-08-25T00:39:04;21.30;86.20
17994;DHT22;9122;48.406;9.984;2022-08-25T00:41:51;21.30;86.30
17994;DHT22;9122;48.406;9.984;2022-08-25T00:44:36;21.20;86.60
17994;DHT22;9122;48.406;9.984;2022-08-25T00:47:20;21.20;86.60
17994;DHT22;9122;48.406;9.984;2022-08-25T00:50:07;21.20;86.70
17994;DHT22;9122;48.406;9.984;2022-08-25T00:52:54;21.10;86.90
17994;DHT22;9122;48.406;9.984;2022-08-25T00:55:39;21.10;86.90
17994;DHT22;9122;48.406;9.984;2022-08-25T00:58:27;21.10;88.00
17994;DHT22;9122;48.406;9.984;2022-08-25T01:01:14;21.10;87.60
17994;DHT22;9122;48.406;9.984;2022-08-25T01:03:59;21.00;87.60
17994;DHT22;9122;48.406;9.984;2022-08-25T01:06:44;21.10;87.70
17994;DHT22;9122;48.406;9.984;2022-08-25T01:09:29;21.00;87.70
17994;DHT22;9122;48.406;9.984;2022-08-25T01:12:17;21.00;87.80
17994;DHT22;9122;48.406;9.984;2022-08-25T01:15:04;21.00;88.60
17994;DHT22;9122;48.406;9.984;2022-08-25T01:17:55;21.00;88.80
17994;DHT22;9122;48.406;9.984;2022-08-25T01:20:40;20.90;88.20
17994;DHT22;9122;48.406;9.984;2022-08-25T01:23:25;20.90;88.60
17994;DHT22;9122;48.406;9.984;2022-08-25T01:26:16;20.90;89.00
17994;DHT22;9122;48.406;9.984;2022-08-25T01:29:03;20.80;89.20
17994;DHT22;9122;48.406;9.984;2022-08-25T01:32:10;20.80;89.50
17994;DHT22;9122;48.406;9.984;2022-08-25T01:34:56;20.80;89.70
17994;DHT22;9122;48.406;9.984;2022-08-25T01:37:40;20.80;89.90
17994;DHT22;9122;48.406;9.984;2022-08-25T01:40:25;20.80;90.30
17994;DHT22;9122;48.406;9.984;2022-08-25T01:45:54;20.80;90.10
17994;DHT22;9122;48.406;9.984;2022-08-25T01:48:39;20.80;90.20
17994;DHT22;9122;48.406;9.984;2022-08-25T01:51:24;20.80;90.30
17994;DHT22;9122;48.406;9.984;2022-08-25T01:54:10;20.80;90.30
17994;DHT22;9122;48.406;9.984;2022-08-25T01:56:57;20.70;90.30
17994;DHT22;9122;48.406;9.984;2022-08-25T01:59:41;20.70;90.40
17994;DHT22;9122;48.406;9.984;2022-08-25T02:02:26;20.70;90.50
17994;DHT22;9122;48.406;9.984;2022-08-25T02:05:12;20.70;90.50
17994;DHT22;9122;48.406;9.984;2022-08-25T02:07:57;20.70;90.60
17994;DHT22;9122;48.406;9.984;2022-08-25T02:10:41;20.70;90.60
17994;DHT22;9122;48.406;9.984;2022-08-25T02:13:26;20.60;90.60
17994;DHT22;9122;48.406;9.984;2022-08-25T02:16:17;20.60;90.70
17994;DHT22;9122;48.406;9.984;2022-08-25T02:19:04;20.60;90.80
17994;DHT22;9122;48.406;9.984;2022-08-25T02:21:49;20.50;90.80
17994;DHT22;9122;48.406;9.984;2022-08-25T02:24:34;20.50;90.80
17994;DHT22;9122;48.406;9.984;2022-08-25T02:27:19;20.50;90.80
17994;DHT22;9122;48.406;9.984;2022-08-25T02:30:04;20.50;90.90
17994;DHT22;9122;48.406;9.984;2022-08-25T02:32:49;20.50;90.90
17994;DHT22;9122;48.406;9.984;2022-08-25T02:35:34;20.50;91.00
17994;DHT22;9122;48.406;9.984;2022-08-25T02:38:19;20.50;91.00
17994;DHT22;9122;48.406;9.984;2022-08-25T02:41:23;20.50;91.20
17994;DHT22;9122;48.406;9.984;2022-08-25T02:44:14;20.50;91.10
17994;DHT22;9122;48.406;9.984;2022-08-25T02:46:58;20.40;91.20
17994;DHT22;9122;48.406;9.984;2022-08-25T02:49:43;20.40;91.20
17994;DHT22;9122;48.406;9.984;2022-08-25T02:52:28;20.40;91.20
17994;DHT22;9122;48.406;9.984;2022-08-25T02:55:12;20.40;91.00
17994;DHT22;9122;48.406;9.984;2022-08-25T02:57:57;20.30;91.00
17994;DHT22;9122;48.406;9.984;2022-08-25T03:00:41;20.30;91.10
17994;DHT22;9122;48.406;9.984;2022-08-25T03:03:26;20.30;91.10
17994;DHT22;9122;48.406;9.984;2022-08-25T03:06:13;20.30;91.30
17994;DHT22;9122;48.406;9.984;2022-08-25T03:08:58;20.30;91.30
17994;DHT22;9122;48.406;9.984;2022-08-25T03:11:42;20.30;91.40
17994;DHT22;9122;48.406;9.984;2022-08-25T03:14:27;20.20;91.50
17994;DHT22;9122;48.406;9.984;2022-08-25T03:17:12;20.20;91.60
17994;DHT22;9122;48.406;9.984;2022-08-25T03:19:56;20.20;91.60
17994;DHT22;9122;48.406;9.984;2022-08-25T03:22:41;20.10;91.60
17994;DHT22;9122;48.406;9.984;2022-08-25T03:25:25;20.10;91.70
17994;DHT22;9122;48.406;9.984;2022-08-25T03:28:29;20.10;91.70
17994;DHT22;9122;48.406;9.984;2022-08-25T03:31:17;20.10;91.70
17994;DHT22;9122;48.406;9.984;2022-08-25T03:34:02;20.10;91.60
17994;DHT22;9122;48.406;9.984;2022-08-25T03:36:50;20.10;91.60
17994;DHT22;9122;48.406;9.984;2022-08-25T03:39:35;20.00;91.60
17994;DHT22;9122;48.406;9.984;2022-08-25T03:42:19;20.00;91.70
17994;DHT22;9122;48.406;9.984;2022-08-25T03:45:04;20.00;91.70
17994;DHT22;9122;48.406;9.984;2022-08-25T03:47:50;20.00;91.80
17994;DHT22;9122;48.406;9.984;2022-08-25T03:50:35;20.00;91.80
17994;DHT22;9122;48.406;9.984;2022-08-25T03:53:20;20.00;91.80
17994;DHT22;9122;48.406;9.984;2022-08-25T03:56:05;19.90;91.80
17994;DHT22;9122;48.406;9.984;2022-08-25T03:58:49;20.00;91.90
17994;DHT22;9122;48.406;9.984;2022-08-25T04:01:37;19.90;91.90
17994;DHT22;9122;48.406;9.984;2022-08-25T04:04:22;19.90;92.00
17994;DHT22;9122;48.406;9.984;2022-08-25T04:07:07;19.90;92.10
17994;DHT22;9122;48.406;9.984;2022-08-25T04:09:53;19.90;92.20
17994;DHT22;9122;48.406;9.984;2022-08-25T04:12:37;19.90;92.20
17994;DHT22;9122;48.406;9.984;2022-08-25T04:15:22;19.90;92.20
17994;DHT22;9122;48.406;9.984;2022-08-25T04:18:08;19.80;92.30
17994;DHT22;9122;48.406;9.984;2022-08-25T04:21:02;19.80;92.40
17994;DHT22;9122;48.406;9.984;2022-08-25T04:23:47;19.80;92.40
17994;DHT22;9122;48.406;9.984;2022-08-25T04:26:39;19.80;92.30
17994;DHT22;9122;48.406;9.984;2022-08-25T04:29:25;19.80;92.10
17994;DHT22;9122;48.406;9.984;2022-08-25T04:32:10;19.70;92.00
17994;DHT22;9122;48.406;9.984;2022-08-25T04:34:55;19.70;92.00
17994;DHT22;9122;48.406;9.984;2022-08-25T04:37:40;19.70;92.00
17994;DHT22;9122;48.406;9.984;2022-08-25T04:40:24;19.70;92.10
17994;DHT22;9122;48.406;9.984;2022-08-25T04:43:09;19.70;92.10
17994;DHT22;9122;48.406;9.984;2022-08-25T04:45:57;19.70;92.10
17994;DHT22;9122;48.406;9.984;2022-08-25T04:48:42;19.70;92.20
17994;DHT22;9122;48.406;9.984;2022-08-25T04:51:30;19.70;92.20
17994;DHT22;9122;48.406;9.984;2022-08-25T04:54:15;19.70;92.20
17994;DHT22;9122;48.406;9.984;2022-08-25T04:57:00;19.60;92.20
17994;DHT22;9122;48.406;9.984;2022-08-25T04:59:44;19.60;92.30
17994;DHT22;9122;48.406;9.984;2022-08-25T05:02:29;19.60;92.30
17994;DHT22;9122;48.406;9.984;2022-08-25T05:05:14;19.60;92.10
17994;DHT22;9122;48.406;9.984;2022-08-25T05:07:59;19.60;92.00
17994;DHT22;9122;48.406;9.984;2022-08-25T05:10:43;19.60;92.00
17994;DHT22;9122;48.406;9.984;2022-08-25T05:13:28;19.60;92.10
17994;DHT22;9122;48.406;9.984;2022-08-25T05:16:13;19.60;92.20
17994;DHT22;9122;48.406;9.984;2022-08-25T05:18:57;19.60;92.20
17994;DHT22;9122;48.406;9.984;2022-08-25T05:21:42;19.60;92.20
17994;DHT22;9122;48.406;9.984;2022-08-25T05:24:27;19.60;92.40
17994;DHT22;9122;48.406;9.984;2022-08-25T05:27:12;19.60;92.40
17994;DHT22;9122;48.406;9.984;2022-08-25T05:29:57;19.70;92.70
17994;DHT22;9122;48.406;9.984;2022-08-25T05:32:41;19.70;92.90
17994;DHT22;9122;48.406;9.984;2022-08-25T05:35:26;19.80;93.00
17994;DHT22;9122;48.406;9.984;2022-08-25T05:38:10;19.80;93.10
17994;DHT22;9122;48.406;9.984;2022-08-25T05:41:01;19.90;93.10
17994;DHT22;9122;48.406;9.984;2022-08-25T05:43:47;19.90;93.20
17994;DHT22;9122;48.406;9.984;2022-08-25T05:46:32;20.00;93.10
17994;DHT22;9122;48.406;9.984;2022-08-25T05:49:17;20.00;93.00
17994;DHT22;9122;48.406;9.984;2022-08-25T05:52:02;20.10;93.00
17994;DHT22;9122;48.406;9.984;2022-08-25T05:54:47;20.10;93.00
17994;DHT22;9122;48.406;9.984;2022-08-25T05:57:32;20.20;92.90
17994;DHT22;9122;48.406;9.984;2022-08-25T06:00:17;20.30;92.90
17994;DHT22;9122;48.406;9.984;2022-08-25T06:03:02;20.30;92.90
17994;DHT22;9122;48.406;9.984;2022-08-25T06:05:47;20.40;92.80
17994;DHT22;9122;48.406;9.984;2022-08-25T06:08:32;20.50;92.80
17994;DHT22;9122;48.406;9.984;2022-08-25T06:11:17;20.50;92.60
17994;DHT22;9122;48.406;9.984;2022-08-25T06:14:02;20.60;92.60
17994;DHT22;9122;48.406;9.984;2022-08-25T06:16:47;20.70;92.40
17994;DHT22;9122;48.406;9.984;2022-08-25T06:19:34;20.80;92.40
17994;DHT22;9122;48.406;9.984;2022-08-25T06:22:19;20.80;92.30
17994;DHT22;9122;48.406;9.984;2022-08-25T06:25:04;20.90;92.10
17994;DHT22;9122;48.406;9.984;2022-08-25T06:27:49;21.00;92.00
17994;DHT22;9122;48.406;9.984;2022-08-25T06:30:34;21.10;91.90
17994;DHT22;9122;48.406;9.984;2022-08-25T06:33:18;21.20;91.40
17994;DHT22;9122;48.406;9.984;2022-08-25T06:36:03;21.30;91.20
17994;DHT22;9122;48.406;9.984;2022-08-25T06:38:48;21.40;91.10
17994;DHT22;9122;48.406;9.984;2022-08-25T06:41:33;21.50;90.90
17994;DHT22;9122;48.406;9.984;2022-08-25T06:44:17;21.60;90.70
17994;DHT22;9122;48.406;9.984;2022-08-25T06:47:02;21.70;90.50
17994;DHT22;9122;48.406;9.984;2022-08-25T06:49:51;21.80;90.40
17994;DHT22;9122;48.406;9.984;2022-08-25T06:52:36;21.80;90.20
17994;DHT22;9122;48.406;9.984;2022-08-25T06:55:20;21.90;90.00
17994;DHT22;9122;48.406;9.984;2022-08-25T06:58:05;21.90;90.00
17994;DHT22;9122;48.406;9.984;2022-08-25T07:00:50;21.90;90.10
17994;DHT22;9122;48.406;9.984;2022-08-25T07:03:34;21.90;90.10
17994;DHT22;9122;48.406;9.984;2022-08-25T07:06:19;21.90;90.10
17994;DHT22;9122;48.406;9.984;2022-08-25T07:09:05;22.00;90.00
17994;DHT22;9122;48.406;9.984;2022-08-25T07:11:50;22.00;90.00
17994;DHT22;9122;48.406;9.984;2022-08-25T07:14:35;22.10;90.00
17994;DHT22;9122;48.406;9.984;2022-08-25T07:17:21;22.20;89.70
17994;DHT22;9122;48.406;9.984;2022-08-25T07:20:07;22.30;89.50
17994;DHT22;9122;48.406;9.984;2022-08-25T07:22:52;22.40;89.20
17994;DHT22;9122;48.406;9.984;2022-08-25T07:25:36;22.50;88.80
17994;DHT22;9122;48.406;9.984;2022-08-25T07:28:22;22.70;88.30
17994;DHT22;9122;48.406;9.984;2022-08-25T07:31:06;22.80;88.10
17994;DHT22;9122;48.406;9.984;2022-08-25T07:33:50;22.80;87.70
17994;DHT22;9122;48.406;9.984;2022-08-25T07:36:55;22.90;87.40
17994;DHT22;9122;48.406;9.984;2022-08-25T07:39:39;22.90;87.30
17994;DHT22;9122;48.406;9.984;2022-08-25T07:42:24;23.00;87.10
17994;DHT22;9122;48.406;9.984;2022-08-25T07:45:11;23.10;87.20
17994;DHT22;9122;48.406;9.984;2022-08-25T07:48:05;23.10;87.00
17994;DHT22;9122;48.406;9.984;2022-08-25T07:50:50;23.20;86.60
17994;DHT22;9122;48.406;9.984;2022-08-25T07:53:35;23.30;86.30
17994;DHT22;9122;48.406;9.984;2022-08-25T07:56:20;23.30;85.90
17994;DHT22;9122;48.406;9.984;2022-08-25T07:59:04;23.40;85.80
17994;DHT22;9122;48.406;9.984;2022-08-25T08:01:50;23.50;85.60
17994;DHT22;9122;48.406;9.984;2022-08-25T08:04:35;23.60;85.40
17994;DHT22;9122;48.406;9.984;2022-08-25T08:07:25;23.70;85.10
17994;DHT22;9122;48.406;9.984;2022-08-25T08:10:12;23.80;84.50
17994;DHT22;9122;48.406;9.984;2022-08-25T08:12:57;23.80;84.50
17994;DHT22;9122;48.406;9.984;2022-08-25T08:15:42;23.90;84.40
17994;DHT22;9122;48.406;9.984;2022-08-25T08:18:26;24.00;83.90
17994;DHT22;9122;48.406;9.984;2022-08-25T08:21:23;24.10;83.90
17994;DHT22;9122;48.406;9.984;2022-08-25T08:24:08;24.20;83.60
17994;DHT22;9122;48.406;9.984;2022-08-25T08:26:52;24.20;83.20
17994;DHT22;9122;48.406;9.984;2022-08-25T08:29:38;24.30;83.10
17994;DHT22;9122;48.406;9.984;2022-08-25T08:32:23;24.40;83.00
17994;DHT22;9122;48.406;9.984;2022-08-25T08:35:08;24.40;82.70
17994;DHT22;9122;48.406;9.984;2022-08-25T08:37:52;24.50;82.20
17994;DHT22;9122;48.406;9.984;2022-08-25T08:40:48;24.60;82.20
17994;DHT22;9122;48.406;9.984;2022-08-25T08:51:05;24.80;81.30
17994;DHT22;9122;48.406;9.984;2022-08-25T08:54:08;24.90;81.00
17994;DHT22;9122;48.406;9.984;2022-08-25T08:57:14;24.90;80.80
17994;DHT22;9122;48.406;9.984;2022-08-25T09:00:05;25.00;80.70
17994;DHT22;9122;48.406;9.984;2022-08-25T09:02:58;25.10;80.50
17994;DHT22;9122;48.406;9.984;2022-08-25T09:05:47;25.20;80.50
17994;DHT22;9122;48.406;9.984;2022-08-25T09:08:31;25.30;79.70
17994;DHT22;9122;48.406;9.984;2022-08-25T09:14:25;25.40;78.90
17994;DHT22;9122;48.406;9.984;2022-08-25T09:17:46;25.50;78.90
17994;DHT22;9122;48.406;9.984;2022-08-25T09:27:25;25.80;78.50
17994;DHT22;9122;48.406;9.984;2022-08-25T09:30:18;25.80;77.70
17994;DHT22;9122;48.406;9.984;2022-08-25T09:33:03;25.90;77.20
17994;DHT22;9122;48.406;9.984;2022-08-25T09:35:50;26.00;76.70
17994;DHT22;9122;48.406;9.984;2022-08-25T09:38:35;26.00;76.40
17994;DHT22;9122;48.406;9.984;2022-08-25T09:44:42;26.10;76.60
17994;DHT22;9122;48.406;9.984;2022-08-25T09:47:27;26.10;76.20
17994;DHT22;9122;48.406;9.984;2022-08-25T09:50:16;26.20;76.00
17994;DHT22;9122;48.406;9.984;2022-08-25T09:53:14;26.20;76.30
17994;DHT22;9122;48.406;9.984;2022-08-25T09:56:05;26.30;76.10
17994;DHT22;9122;48.406;9.984;2022-08-25T09:59:17;26.30;75.90
17994;DHT22;9122;48.406;9.984;2022-08-25T10:02:03;26.40;75.40
17994;DHT22;9122;48.406;9.984;2022-08-25T10:04:48;26.40;75.00
17994;DHT22;9122;48.406;9.984;2022-08-25T10:07:36;26.60;76.10
17994;DHT22;9122;48.406;9.984;2022-08-25T10:10:44;26.60;74.30
17994;DHT22;9122;48.406;9.984;2022-08-25T10:13:35;27.40;74.60
17994;DHT22;9122;48.406;9.984;2022-08-25T10:16:26;26.70;74.00
17994;DHT22;9122;48.406;9.984;2022-08-25T10:19:28;26.80;73.60
17994;DHT22;9122;48.406;9.984;2022-08-25T10:22:23;26.80;73.10
17994;DHT22;9122;48.406;9.984;2022-08-25T10:25:15;26.90;72.50
17994;DHT22;9122;48.406;9.984;2022-08-25T10:30:50;27.00;73.20
17994;DHT22;9122;48.406;9.984;2022-08-25T10:39:41;27.10;72.90
17994;DHT22;9122;48.406;9.984;2022-08-25T10:42:38;27.20;72.00
17994;DHT22;9122;48.406;9.984;2022-08-25T10:45:28;27.30;71.80
17994;DHT22;9122;48.406;9.984;2022-08-25T10:55:29;27.50;71.70
17994;DHT22;9122;48.406;9.984;2022-08-25T11:07:49;27.80;70.60
17994;DHT22;9122;48.406;9.984;2022-08-25T11:13:49;27.90;69.50
17994;DHT22;9122;48.406;9.984;2022-08-25T11:16:41;28.00;69.30
17994;DHT22;9122;48.406;9.984;2022-08-25T11:19:36;28.00;69.10
17994;DHT22;9122;48.406;9.984;2022-08-25T11:22:46;28.10;68.50
17994;DHT22;9122;48.406;9.984;2022-08-25T11:25:41;28.10;68.20
17994;DHT22;9122;48.406;9.984;2022-08-25T11:31:38;28.30;67.80
17994;DHT22;9122;48.406;9.984;2022-08-25T11:34:24;28.30;67.90
17994;DHT22;9122;48.406;9.984;2022-08-25T11:37:29;28.30;67.90
17994;DHT22;9122;48.406;9.984;2022-08-25T11:58:31;28.40;64.80
17994;DHT22;9122;48.406;9.984;2022-08-25T12:07:22;28.40;65.00
17994;DHT22;9122;48.406;9.984;2022-08-25T12:10:10;28.40;65.30
17994;DHT22;9122;48.406;9.984;2022-08-25T12:13:04;28.50;64.80
17994;DHT22;9122;48.406;9.984;2022-08-25T12:16:06;28.50;64.00
17994;DHT22;9122;48.406;9.984;2022-08-25T12:25:19;28.50;63.40
17994;DHT22;9122;48.406;9.984;2022-08-25T12:37:34;28.40;63.70
17994;DHT22;9122;48.406;9.984;2022-08-25T12:43:32;28.40;62.80
17994;DHT22;9122;48.406;9.984;2022-08-25T12:49:31;28.50;63.60
17994;DHT22;9122;48.406;9.984;2022-08-25T12:52:19;28.50;62.70
17994;DHT22;9122;48.406;9.984;2022-08-25T12:55:05;28.50;63.20
17994;DHT22;9122;48.406;9.984;2022-08-25T12:57:55;28.50;63.20
17994;DHT22;9122;48.406;9.984;2022-08-25T13:01:21;28.60;62.50
17994;DHT22;9122;48.406;9.984;2022-08-25T13:10:43;28.50;62.30
17994;DHT22;9122;48.406;9.984;2022-08-25T13:16:35;28.60;61.00
17994;DHT22;9122;48.406;9.984;2022-08-25T13:19:20;28.60;61.50
17994;DHT22;9122;48.406;9.984;2022-08-25T13:22:16;28.60;61.40
17994;DHT22;9122;48.406;9.984;2022-08-25T13:25:02;28.60;61.60
17994;DHT22;9122;48.406;9.984;2022-08-25T13:27:55;28.60;61.50
17994;DHT22;9122;48.406;9.984;2022-08-25T13:30:40;28.60;61.30
17994;DHT22;9122;48.406;9.984;2022-08-25T13:33:24;28.60;61.40
17994;DHT22;9122;48.406;9.984;2022-08-25T13:36:15;28.60;61.30
17994;DHT22;9122;48.406;9.984;2022-08-25T13:39:23;28.60;60.80
17994;DHT22;9122;48.406;9.984;2022-08-25T13:42:15;28.60;59.80
17994;DHT22;9122;48.406;9.984;2022-08-25T13:44:59;28.60;60.00
17994;DHT22;9122;48.406;9.984;2022-08-25T13:47:45;28.50;59.90
17994;DHT22;9122;48.406;9.984;2022-08-25T13:50:35;28.60;60.00
17994;DHT22;9122;48.406;9.984;2022-08-25T13:53:25;28.50;59.90
17994;DHT22;9122;48.406;9.984;2022-08-25T13:56:09;28.50;60.00
17994;DHT22;9122;48.406;9.984;2022-08-25T13:58:56;28.50;59.20
17994;DHT22;9122;48.406;9.984;2022-08-25T14:01:45;28.50;58.60
17994;DHT22;9122;48.406;9.984;2022-08-25T14:07:26;28.50;57.60
17994;DHT22;9122;48.406;9.984;2022-08-25T14:13:29;28.50;57.40
17994;DHT22;9122;48.406;9.984;2022-08-25T14:16:21;28.50;57.40
17994;DHT22;9122;48.406;9.984;2022-08-25T14:19:16;28.50;58.20
17994;DHT22;9122;48.406;9.984;2022-08-25T14:22:02;28.50;59.00
17994;DHT22;9122;48.406;9.984;2022-08-25T14:24:51;28.50;59.20
17994;DHT22;9122;48.406;9.984;2022-08-25T14:27:35;28.50;58.90
17994;DHT22;9122;48.406;9.984;2022-08-25T14:30:20;28.50;58.90
17994;DHT22;9122;48.406;9.984;2022-08-25T14:33:05;28.50;58.80
17994;DHT22;9122;48.406;9.984;2022-08-25T14:35:52;28.50;58.00
17994;DHT22;9122;48.406;9.984;2022-08-25T14:38:38;28.50;57.90
17994;DHT22;9122;48.406;9.984;2022-08-25T14:41:23;28.50;57.60
17994;DHT22;9122;48.406;9.984;2022-08-25T14:44:09;28.50;57.90
17994;DHT22;9122;48.406;9.984;2022-08-25T14:46:54;28.50;57.60
17994;DHT22;9122;48.406;9.984;2022-08-25T14:49:41;28.50;57.50
17994;DHT22;9122;48.406;9.984;2022-08-25T14:52:28;28.50;57.20
17994;DHT22;9122;48.406;9.984;2022-08-25T14:55:13;28.50;57.30
17994;DHT22;9122;48.406;9.984;2022-08-25T14:57:58;28.50;57.00
17994;DHT22;9122;48.406;9.984;2022-08-25T15:00:44;28.50;55.80
17994;DHT22;9122;48.406;9.984;2022-08-25T15:03:35;28.50;55.90
17994;DHT22;9122;48.406;9.984;2022-08-25T15:06:20;28.50;57.70
17994;DHT22;9122;48.406;9.984;2022-08-25T15:09:05;28.50;58.50
17994;DHT22;9122;48.406;9.984;2022-08-25T15:11:55;28.50;58.50
17994;DHT22;9122;48.406;9.984;2022-08-25T15:14:39;28.50;58.60
17994;DHT22;9122;48.406;9.984;2022-08-25T15:17:25;28.50;58.10
17994;DHT22;9122;48.406;9.984;2022-08-25T15:20:10;28.50;58.00
17994;DHT22;9122;48.406;9.984;2022-08-25T15:22:54;28.50;58.00
17994;DHT22;9122;48.406;9.984;2022-08-25T15:25:40;28.50;56.40
17994;DHT22;9122;48.406;9.984;2022-08-25T15:28:25;28.50;55.80
17994;DHT22;9122;48.406;9.984;2022-08-25T15:31:11;28.50;55.80
17994;DHT22;9122;48.406;9.984;2022-08-25T15:33:55;28.50;56.80
17994;DHT22;9122;48.406;9.984;2022-08-25T15:36:40;28.50;57.00
17994;DHT22;9122;48.406;9.984;2022-08-25T15:39:25;28.50;56.90
17994;DHT22;9122;48.406;9.984;2022-08-25T15:42:10;28.50;57.10
17994;DHT22;9122;48.406;9.984;2022-08-25T15:44:55;28.50;56.80
17994;DHT22;9122;48.406;9.984;2022-08-25T15:47:39;28.50;56.20
17994;DHT22;9122;48.406;9.984;2022-08-25T15:50:25;28.50;56.70
17994;DHT22;9122;48.406;9.984;2022-08-25T15:53:09;28.50;57.10
17994;DHT22;9122;48.406;9.984;2022-08-25T15:55:54;28.40;56.90
17994;DHT22;9122;48.406;9.984;2022-08-25T15:58:40;28.40;56.70
17994;DHT22;9122;48.406;9.984;2022-08-25T16:01:27;28.40;56.70
17994;DHT22;9122;48.406;9.984;2022-08-25T16:04:13;28.40;56.80
17994;DHT22;9122;48.406;9.984;2022-08-25T16:06:59;28.40;57.20
17994;DHT22;9122;48.406;9.984;2022-08-25T16:09:43;28.40;57.00
17994;DHT22;9122;48.406;9.984;2022-08-25T16:12:28;28.40;57.10
17994;DHT22;9122;48.406;9.984;2022-08-25T16:15:12;28.40;56.80
17994;DHT22;9122;48.406;9.984;2022-08-25T16:17:58;28.40;56.70
17994;DHT22;9122;48.406;9.984;2022-08-25T16:20:45;28.40;56.50
17994;DHT22;9122;48.406;9.984;2022-08-25T16:23:29;28.40;56.20
17994;DHT22;9122;48.406;9.984;2022-08-25T16:26:14;28.40;55.70
17994;DHT22;9122;48.406;9.984;2022-08-25T16:28:59;28.40;55.80
17994;DHT22;9122;48.406;9.984;2022-08-25T16:31:44;28.40;56.30
17994;DHT22;9122;48.406;9.984;2022-08-25T16:34:29;28.30;56.00
17994;DHT22;9122;48.406;9.984;2022-08-25T16:37:13;28.30;56.40
17994;DHT22;9122;48.406;9.984;2022-08-25T16:39:58;28.30;56.20
17994;DHT22;9122;48.406;9.984;2022-08-25T16:42:42;28.30;56.20
17994;DHT22;9122;48.406;9.984;2022-08-25T16:45:28;28.30;56.20
17994;DHT22;9122;48.406;9.984;2022-08-25T16:48:12;28.30;56.20
17994;DHT22;9122;48.406;9.984;2022-08-25T16:50:57;28.30;56.20
17994;DHT22;9122;48.406;9.984;2022-08-25T16:53:41;28.30;56.40
17994;DHT22;9122;48.406;9.984;2022-08-25T16:56:45;28.30;56.80
17994;DHT22;9122;48.406;9.984;2022-08-25T16:59:29;28.20;57.00
17994;DHT22;9122;48.406;9.984;2022-08-25T17:02:14;28.20;57.10
17994;DHT22;9122;48.406;9.984;2022-08-25T17:04:59;28.20;56.90
17994;DHT22;9122;48.406;9.984;2022-08-25T17:07:44;28.20;57.30
17994;DHT22;9122;48.406;9.984;2022-08-25T17:10:48;28.20;58.20
17994;DHT22;9122;48.406;9.984;2022-08-25T17:13:34;28.20;57.70
17994;DHT22;9122;48.406;9.984;2022-08-25T17:16:20;28.10;57.10
17994;DHT22;9122;48.406;9.984;2022-08-25T17:19:07;28.10;57.80
17994;DHT22;9122;48.406;9.984;2022-08-25T17:21:52;28.10;58.00
17994;DHT22;9122;48.406;9.984;2022-08-25T17:24:38;28.10;58.60
17994;DHT22;9122;48.406;9.984;2022-08-25T17:27:22;28.10;58.20
17994;DHT22;9122;48.406;9.984;2022-08-25T17:30:07;28.10;57.90
17994;DHT22;9122;48.406;9.984;2022-08-25T17:32:52;28.10;58.30
17994;DHT22;9122;48.406;9.984;2022-08-25T17:35:41;28.00;58.90
17994;DHT22;9122;48.406;9.984;2022-08-25T17:38:27;28.00;59.50
17994;DHT22;9122;48.406;9.984;2022-08-25T17:41:12;28.00;59.70
17994;DHT22;9122;48.406;9.984;2022-08-25T17:43:56;27.90;59.80
17994;DHT22;9122;48.406;9.984;2022-08-25T17:46:41;27.90;59.90
17994;DHT22;9122;48.406;9.984;2022-08-25T17:49:26;27.90;59.70
17994;DHT22;9122;48.406;9.984;2022-08-25T17:52:10;27.90;59.80
17994;DHT22;9122;48.406;9.984;2022-08-25T17:54:56;27.90;60.00
17994;DHT22;9122;48.406;9.984;2022-08-25T17:57:41;27.80;60.30
17994;DHT22;9122;48.406;9.984;2022-08-25T18:00:25;27.80;60.70
17994;DHT22;9122;48.406;9.984;2022-08-25T18:03:10;27.80;61.00
17994;DHT22;9122;48.406;9.984;2022-08-25T18:05:55;27.80;61.10
17994;DHT22;9122;48.406;9.984;2022-08-25T18:08:40;27.70;61.20
17994;DHT22;9122;48.406;9.984;2022-08-25T18:11:26;27.70;61.20
17994;DHT22;9122;48.406;9.984;2022-08-25T18:14:12;27.70;61.30
17994;DHT22;9122;48.406;9.984;2022-08-25T18:16:57;27.60;61.60
17994;DHT22;9122;48.406;9.984;2022-08-25T18:19:43;27.60;61.40
17994;DHT22;9122;48.406;9.984;2022-08-25T18:22:28;27.50;61.50
17994;DHT22;9122;48.406;9.984;2022-08-25T18:25:13;27.50;61.70
17994;DHT22;9122;48.406;9.984;2022-08-25T18:27:57;27.40;62.40
17994;DHT22;9122;48.406;9.984;2022-08-25T18:30:42;27.40;62.80
17994;DHT22;9122;48.406;9.984;2022-08-25T18:33:26;27.30;63.10
17994;DHT22;9122;48.406;9.984;2022-08-25T18:36:12;27.30;63.30
17994;DHT22;9122;48.406;9.984;2022-08-25T18:38:56;27.30;63.30
17994;DHT22;9122;48.406;9.984;2022-08-25T18:42:00;27.30;63.40
17994;DHT22;9122;48.406;9.984;2022-08-25T18:44:44;27.20;63.60
17994;DHT22;9122;48.406;9.984;2022-08-25T18:47:29;27.20;63.70
17994;DHT22;9122;48.406;9.984;2022-08-25T18:50:13;27.10;64.20
17994;DHT22;9122;48.406;9.984;2022-08-25T18:52:58;27.10;64.30
17994;DHT22;9122;48.406;9.984;2022-08-25T18:55:44;27.00;64.40
17994;DHT22;9122;48.406;9.984;2022-08-25T18:58:28;27.00;64.50
17994;DHT22;9122;48.406;9.984;2022-08-25T19:01:14;27.00;65.00
17994;DHT22;9122;48.406;9.984;2022-08-25T19:03:59;26.90;65.30
17994;DHT22;9122;48.406;9.984;2022-08-25T19:06:43;26.80;65.70
17994;DHT22;9122;48.406;9.984;2022-08-25T19:09:28;26.80;66.60
17994;DHT22;9122;48.406;9.984;2022-08-25T19:12:12;26.80;67.10
17994;DHT22;9122;48.406;9.984;2022-08-25T19:14:57;26.70;67.30
17994;DHT22;9122;48.406;9.984;2022-08-25T19:17:41;26.70;67.50
17994;DHT22;9122;48.406;9.984;2022-08-25T19:20:27;26.70;67.70
17994;DHT22;9122;48.406;9.984;2022-08-25T19:23:13;26.60;67.70
17994;DHT22;9122;48.406;9.984;2022-08-25T19:25:58;26.60;67.70
17994;DHT22;9122;48.406;9.984;2022-08-25T19:28:44;26.50;67.90
17994;DHT22;9122;48.406;9.984;2022-08-25T19:31:28;26.50;68.10
17994;DHT22;9122;48.406;9.984;2022-08-25T19:34:16;26.40;68.00
17994;DHT22;9122;48.406;9.984;2022-08-25T19:37:03;26.40;68.00
17994;DHT22;9122;48.406;9.984;2022-08-25T19:39:49;26.40;68.00
17994;DHT22;9122;48.406;9.984;2022-08-25T19:42:36;26.30;68.20
17994;DHT22;9122;48.406;9.984;2022-08-25T19:45:21;26.30;68.40
17994;DHT22;9122;48.406;9.984;2022-08-25T19:48:07;26.20;68.60